Time;durP1;ratioP1;P1;durP2;ratioP2;P2;SDS_P1;SDS_P2;PMS_P1;PMS_P2;Temp;Humidity;BMP_temperature;BMP_pressure;BME280_temperature;BME280_humidity;BME280_pressure;Samples;Min_cycle;Max_cycle;Signal;HPM_P1;HPM_P2
2023/08/18 00:05:17;;;;;;;12.90;7.90;;;;;;;18.38;100.00;99314.27;270553;1270;22214;-84
2023/08/18 00:11:19;;;;;;;12.70;8.60;;;;;;;18.43;100.00;99316.52;270016;1270;24151;-83
2023/08/18 00:17:21;;;;;;;13.10;8.40;;;;;;;18.45;100.00;99310.78;271889;1270;22286;-84
2023/08/18 00:23:23;;;;;;;15.40;8.70;;;;;;;18.43;100.00;99300.83;271944;1270;22405;-85
2023/08/18 00:29:25;;;;;;;11.60;8.60;;;;;;;18.39;100.00;99290.45;273073;1269;22211;-84
2023/08/18 00:35:27;;;;;;;10.10;8.10;;;;;;;18.37;100.00;99284.19;273065;1270;23049;-85
2023/08/18 00:41:29;;;;;;;13.50;8.30;;;;;;;18.34;100.00;99280.58;273006;1261;22440;-83
2023/08/18 00:47:30;;;;;;;9.30;7.90;;;;;;;18.29;100.00;99280.66;272902;1270;22221;-84
2023/08/18 00:53:34;;;;;;;9.60;8.00;;;;;;;18.20;100.00;99288.31;272977;1270;22328;-84
2023/08/18 00:59:36;;;;;;;13.20;8.90;;;;;;;18.11;100.00;99290.13;273379;1273;22188;-84
2023/08/18 01:05:39;;;;;;;11.60;8.70;;;;;;;18.03;100.00;99279.48;273008;1270;22928;-83
2023/08/18 01:11:56;;;;;;;10.80;7.60;;;;;;;18.01;100.00;99280.94;273061;1268;23575;-84
2023/08/18 01:18:01;;;;;;;10.40;7.70;;;;;;;17.93;100.00;99278.51;272979;1270;22388;-84
2023/08/18 01:24:03;;;;;;;16.60;6.40;;;;;;;17.90;100.00;99276.98;273214;1272;22302;-84
2023/08/18 01:30:05;;;;;;;9.00;7.10;;;;;;;17.82;100.00;99276.54;273076;1270;23694;-85
2023/08/18 01:36:12;;;;;;;10.20;7.30;;;;;;;17.78;100.00;99279.74;273048;1270;23100;-84
2023/08/18 01:42:14;;;;;;;9.90;7.90;;;;;;;17.77;100.00;99283.48;273107;1270;22344;-84
2023/08/18 01:48:15;;;;;;;13.50;8.30;;;;;;;17.70;100.00;99287.20;273104;1270;22205;-84
2023/08/18 01:54:19;;;;;;;15.10;7.20;;;;;;;17.65;100.00;99283.01;273234;1271;22345;-84
2023/08/18 02:00:21;;;;;;;12.10;7.80;;;;;;;17.57;100.00;99277.79;273235;1272;22179;-85
2023/08/18 02:06:23;;;;;;;8.70;7.80;;;;;;;17.50;100.00;99269.59;273190;1270;22387;-84
2023/08/18 02:12:25;;;;;;;11.90;7.10;;;;;;;17.48;100.00;99268.66;273243;1270;22414;-84
2023/08/18 02:18:27;;;;;;;12.70;8.00;;;;;;;17.46;100.00;99266.85;271416;1271;22741;-84
2023/08/18 02:24:29;;;;;;;10.60;9.30;;;;;;;17.49;100.00;99270.63;270780;1271;22426;-84
2023/08/18 02:30:30;;;;;;;12.70;8.00;;;;;;;17.55;100.00;99269.61;273204;1270;22198;-85
2023/08/18 02:36:33;;;;;;;11.00;7.80;;;;;;;17.51;100.00;99257.80;273187;1270;100668;-85
2023/08/18 02:42:35;;;;;;;15.90;6.40;;;;;;;17.44;100.00;99256.98;273263;1272;23034;-85
2023/08/18 02:48:37;;;;;;;11.50;6.50;;;;;;;17.40;100.00;99258.76;273260;1270;22314;-86
2023/08/18 02:54:38;;;;;;;10.20;6.40;;;;;;;17.38;100.00;99255.79;272310;1271;22534;-85
2023/08/18 03:00:41;;;;;;;7.30;5.70;;;;;;;17.34;100.00;99254.41;270030;1270;22531;-84
2023/08/18 03:06:43;;;;;;;8.30;6.40;;;;;;;17.30;100.00;99259.66;271757;1270;22356;-85
2023/08/18 03:12:44;;;;;;;14.70;7.50;;;;;;;17.29;100.00;99261.66;273208;1271;22331;-85
2023/08/18 03:18:46;;;;;;;9.60;7.80;;;;;;;17.23;100.00;99256.60;271756;1270;22515;-85
2023/08/18 03:24:50;;;;;;;14.50;8.20;;;;;;;17.18;100.00;99251.74;270729;1266;22424;-85
2023/08/18 03:30:51;;;;;;;9.90;7.90;;;;;;;17.12;100.00;99248.82;270243;1270;22186;-85
2023/08/18 03:36:53;;;;;;;12.20;7.00;;;;;;;17.00;100.00;99246.97;273233;1270;23072;-86
2023/08/18 03:42:55;;;;;;;8.50;6.30;;;;;;;16.91;100.00;99245.40;273250;1270;22313;-85
2023/08/18 03:48:57;;;;;;;8.60;7.40;;;;;;;16.96;100.00;99243.39;270311;1270;22545;-85
2023/08/18 03:54:59;;;;;;;11.00;6.90;;;;;;;17.00;100.00;99235.84;269561;1271;25362;-85
2023/08/18 04:01:06;;;;;;;9.10;6.80;;;;;;;16.99;100.00;99245.88;269413;1271;22587;-86
2023/08/18 04:07:08;;;;;;;9.00;6.00;;;;;;;16.96;100.00;99244.64;269322;1270;25290;-85
2023/08/18 04:13:11;;;;;;;9.20;5.90;;;;;;;16.98;100.00;99250.31;269446;1270;22562;-85
2023/08/18 04:19:13;;;;;;;12.00;7.00;;;;;;;16.97;100.00;99248.17;269160;1272;22535;-85
2023/08/18 04:25:14;;;;;;;9.70;6.20;;;;;;;16.91;100.00;99253.69;269430;1270;26641;-86
2023/08/18 04:31:17;;;;;;;7.70;6.00;;;;;;;16.90;100.00;99257.27;269350;1271;22498;-86
2023/08/18 04:37:25;;;;;;;10.20;6.80;;;;;;;16.89;100.00;99258.94;269428;1272;22541;-86
2023/08/18 04:43:29;;;;;;;12.10;7.60;;;;;;;16.89;100.00;99263.52;270564;1270;23773;-86
2023/08/18 04:49:31;;;;;;;13.20;8.00;;;;;;;16.96;100.00;99262.66;272796;1270;23053;-84
2023/08/18 04:55:34;;;;;;;12.60;7.90;;;;;;;17.02;100.00;99263.55;273150;1270;22299;-85
2023/08/18 05:01:36;;;;;;;10.00;8.20;;;;;;;17.19;100.00;99267.94;272863;1270;23320;-85
2023/08/18 05:07:43;;;;;;;10.70;8.80;;;;;;;17.40;100.00;99264.70;272566;1270;22825;-84
2023/08/18 05:13:45;;;;;;;11.60;8.00;;;;;;;17.61;100.00;99264.95;273053;1270;22316;-84
2023/08/18 05:19:47;;;;;;;9.40;8.10;;;;;;;17.83;100.00;99265.73;273106;1270;22305;-84
2023/08/18 05:25:53;;;;;;;14.50;9.40;;;;;;;18.05;100.00;99267.58;272975;1270;22373;-83
2023/08/18 05:31:54;;;;;;;10.40;8.80;;;;;;;18.24;100.00;99272.20;271542;1270;23143;-84
2023/08/18 05:37:56;;;;;;;9.50;7.60;;;;;;;18.38;100.00;99271.76;270588;1270;22368;-86
2023/08/18 05:43:58;;;;;;;12.50;9.40;;;;;;;18.54;100.00;99269.05;272990;1270;22566;-84
2023/08/18 05:49:59;;;;;;;20.80;11.00;;;;;;;18.66;100.00;99263.45;273190;1270;22333;-83
2023/08/18 05:56:02;;;;;;;27.20;12.60;;;;;;;18.83;100.00;99258.40;273062;1267;22914;-84
2023/08/18 06:02:04;;;;;;;22.90;12.10;;;;;;;19.05;100.00;99259.83;273027;1270;22389;-83
2023/08/18 06:08:05;;;;;;;25.00;13.30;;;;;;;19.28;100.00;99259.80;272860;1263;22390;-84
2023/08/18 06:14:07;;;;;;;24.00;13.10;;;;;;;19.43;100.00;99257.52;272955;1270;22342;-83
2023/08/18 06:20:09;;;;;;;22.50;12.70;;;;;;;19.60;100.00;99258.42;273030;1270;22495;-83
2023/08/18 06:26:11;;;;;;;16.10;12.50;;;;;;;19.74;100.00;99257.66;273085;1270;22947;-84
2023/08/18 06:32:13;;;;;;;18.70;12.50;;;;;;;19.88;100.00;99262.73;273063;1270;22343;-83
2023/08/18 06:38:14;;;;;;;18.90;11.20;;;;;;;20.06;100.00;99266.93;272946;1270;22199;-84
2023/08/18 06:44:16;;;;;;;18.90;12.20;;;;;;;20.18;100.00;99270.02;273181;1270;22392;-83
2023/08/18 06:50:18;;;;;;;17.40;12.90;;;;;;;20.35;100.00;99264.23;273140;1270;23908;-84
2023/08/18 06:56:19;;;;;;;17.20;10.40;;;;;;;20.54;100.00;99259.71;271856;1270;23368;-83
2023/08/18 07:02:22;;;;;;;17.00;12.60;;;;;;;20.74;100.00;99255.61;269708;1270;23641;-85
2023/08/18 07:08:24;;;;;;;18.80;11.60;;;;;;;20.87;100.00;99260.38;271144;1270;22292;-85
2023/08/18 07:14:26;;;;;;;21.30;12.20;;;;;;;20.93;100.00;99268.25;273004;1270;22265;-85
2023/08/18 07:20:28;;;;;;;17.70;11.40;;;;;;;21.01;100.00;99273.45;272941;1270;22433;-85
2023/08/18 07:26:30;;;;;;;15.80;10.60;;;;;;;21.01;100.00;99273.00;273046;1270;23762;-85
2023/08/18 07:32:32;;;;;;;12.90;11.20;;;;;;;21.09;100.00;99269.84;273162;1270;22312;-85
2023/08/18 07:38:34;;;;;;;15.60;10.60;;;;;;;21.28;100.00;99269.07;273234;1270;22124;-85
2023/08/18 07:44:36;;;;;;;11.70;9.40;;;;;;;21.54;100.00;99270.00;273259;1270;22309;-85
2023/08/18 07:50:40;;;;;;;11.50;9.80;;;;;;;21.86;100.00;99274.27;273203;1270;22168;-86
2023/08/18 07:56:42;;;;;;;8.90;8.00;;;;;;;22.24;100.00;99280.27;273227;1270;22409;-85
2023/08/18 08:02:48;;;;;;;11.60;8.30;;;;;;;22.72;100.00;99286.50;273249;1270;22235;-85
2023/08/18 08:08:49;;;;;;;13.10;9.50;;;;;;;23.11;100.00;99283.27;273260;1270;22163;-86
2023/08/18 08:14:51;;;;;;;11.70;9.40;;;;;;;23.29;100.00;99290.41;271379;1270;22579;-86
2023/08/18 08:20:53;;;;;;;10.70;8.80;;;;;;;23.44;100.00;99289.65;270824;1270;22895;-86
2023/08/18 08:26:55;;;;;;;8.70;7.80;;;;;;;23.52;100.00;99291.67;273093;1270;24035;-84
2023/08/18 08:32:59;;;;;;;10.50;7.90;;;;;;;23.62;100.00;99285.21;272968;1264;22399;-84
2023/08/18 08:39:02;;;;;;;8.40;7.30;;;;;;;23.84;100.00;99275.42;272968;1270;22308;-83
2023/08/18 08:45:05;;;;;;;7.30;6.60;;;;;;;24.17;100.00;99273.19;273257;1270;22402;-83
2023/08/18 08:51:09;;;;;;;16.90;6.60;;;;;;;24.48;100.00;99269.08;273244;1270;22314;-84
2023/08/18 08:57:11;;;;;;;11.60;6.90;;;;;;;24.58;100.00;99272.33;273260;1270;23278;-84
2023/08/18 09:03:13;;;;;;;10.40;6.80;;;;;;;24.71;100.00;99268.17;273210;1270;22193;-84
2023/08/18 09:09:18;;;;;;;17.70;9.30;;;;;;;24.88;100.00;99262.59;273216;1270;22500;-85
2023/08/18 09:15:22;;;;;;;16.70;10.00;;;;;;;25.10;100.00;99267.06;273248;1270;22409;-85
2023/08/18 09:21:25;;;;;;;16.40;9.50;;;;;;;25.54;100.00;99269.92;273213;1270;22204;-84
2023/08/18 09:27:29;;;;;;;13.10;7.70;;;;;;;25.97;100.00;99270.64;273265;1270;23425;-84
2023/08/18 09:33:58;;;;;;;11.10;7.90;;;;;;;26.61;100.00;99274.77;270536;1270;23660;-84
2023/08/18 09:40:01;;;;;;;11.90;6.90;;;;;;;27.29;100.00;99270.45;271117;1270;22437;-85
2023/08/18 09:46:06;;;;;;;8.90;6.10;;;;;;;28.08;100.00;99263.75;270753;1270;25347;-85
2023/08/18 09:52:11;;;;;;;7.00;5.10;;;;;;;28.81;98.68;99264.32;273219;1270;22310;-84
2023/08/18 09:58:25;;;;;;;8.80;5.70;;;;;;;29.66;94.69;99261.12;273230;1270;22415;-85
2023/08/18 10:04:27;;;;;;;8.50;5.50;;;;;;;30.13;90.52;99257.79;271097;1270;22502;-86
2023/08/18 10:10:29;;;;;;;6.10;5.20;;;;;;;30.40;88.17;99256.78;269723;1270;25375;-86
2023/08/18 10:16:31;;;;;;;9.30;5.40;;;;;;;30.77;86.98;99259.65;269276;1270;22559;-86
2023/08/18 10:22:34;;;;;;;7.40;5.80;;;;;;;30.99;84.56;99254.06;269323;1270;22581;-87
2023/08/18 10:28:37;;;;;;;7.80;5.50;;;;;;;31.28;82.72;99254.55;269115;1270;22748;-86
2023/08/18 10:34:38;;;;;;;9.20;4.50;;;;;;;31.40;79.10;99250.96;272401;1270;22306;-85
2023/08/18 10:40:40;;;;;;;6.30;5.60;;;;;;;31.32;77.49;99251.43;270560;1270;22205;-85
2023/08/18 10:46:42;;;;;;;5.40;4.70;;;;;;;31.51;76.28;99252.73;271160;1270;23615;-87
2023/08/18 10:52:44;;;;;;;6.60;5.00;;;;;;;31.44;73.81;99249.73;273031;1257;23336;-86
2023/08/18 10:58:46;;;;;;;5.90;4.80;;;;;;;31.51;72.70;99242.14;272704;1270;22309;-87
2023/08/18 11:04:50;;;;;;;5.80;4.80;;;;;;;31.78;71.88;99237.77;272825;1270;22370;-87
2023/08/18 11:10:53;;;;;;;5.70;5.10;;;;;;;31.69;70.67;99235.23;272775;1270;22308;-86
2023/08/18 11:16:55;;;;;;;6.90;5.20;;;;;;;31.83;69.86;99233.45;272316;1270;25265;-88
2023/08/18 11:22:57;;;;;;;4.90;4.40;;;;;;;31.98;68.44;99224.33;271424;1270;22205;-87
2023/08/18 11:28:59;;;;;;;7.50;5.30;;;;;;;32.12;66.66;99216.17;273086;1270;22461;-87
2023/08/18 11:35:01;;;;;;;7.60;4.80;;;;;;;32.05;65.41;99216.28;272894;1270;22289;-86
2023/08/18 11:41:03;;;;;;;8.70;5.30;;;;;;;31.90;64.91;99218.07;271887;1270;22221;-86
2023/08/18 11:47:08;;;;;;;5.90;4.60;;;;;;;31.69;64.18;99219.67;272828;1270;22399;-88
2023/08/18 11:53:09;;;;;;;;;;;;;;;31.32;63.69;99218.05;272588;1270;22504;-86
2023/08/18 11:59:20;;;;;;;10.20;5.70;;;;;;;31.02;64.29;99210.27;273027;1270;22216;-88
2023/08/18 12:05:23;;;;;;;8.00;5.20;;;;;;;30.73;63.80;99207.11;273009;1270;22326;-87
2023/08/18 12:11:25;;;;;;;8.20;4.70;;;;;;;30.32;63.51;99202.59;273082;1270;22506;-88
2023/08/18 12:17:26;;;;;;;6.60;4.70;;;;;;;30.05;63.67;99201.22;270204;1270;22543;-88
2023/08/18 12:23:28;;;;;;;9.40;5.50;;;;;;;29.82;63.61;99199.48;272232;1270;22522;-87
2023/08/18 12:29:30;;;;;;;7.40;4.90;;;;;;;29.73;64.69;99195.82;273068;1270;22164;-88
2023/08/18 12:35:32;;;;;;;7.30;5.40;;;;;;;29.63;65.55;99198.67;272759;1263;22308;-88
2023/08/18 12:41:34;;;;;;;10.40;5.60;;;;;;;29.37;65.79;99200.21;272961;1270;22190;-87
2023/08/18 12:47:37;;;;;;;7.40;5.40;;;;;;;29.10;65.95;99195.15;272908;1270;23101;-87
2023/08/18 12:53:39;;;;;;;8.70;5.10;;;;;;;29.00;66.49;99191.06;272963;1270;22443;-88
2023/08/18 12:59:41;;;;;;;5.80;5.20;;;;;;;28.87;66.62;99183.27;273010;1266;24313;-87
2023/08/18 13:05:43;;;;;;;10.00;5.70;;;;;;;28.85;67.16;99181.34;270046;1267;22564;-89
2023/08/18 13:11:45;;;;;;;9.00;5.40;;;;;;;28.77;66.47;99180.84;270377;1267;23081;-87
2023/08/18 13:17:47;;;;;;;8.10;5.70;;;;;;;28.60;65.97;99183.02;272141;1267;22207;-89
2023/08/18 13:23:49;;;;;;;6.20;5.00;;;;;;;28.39;66.53;99189.15;272993;1267;23517;-88
2023/08/18 13:29:51;;;;;;;6.80;5.10;;;;;;;28.17;66.40;99195.65;272018;1267;22520;-88
2023/08/18 13:35:53;;;;;;;11.50;5.40;;;;;;;28.03;66.10;99194.45;270846;1267;22575;-89
2023/08/18 13:41:55;;;;;;;7.00;5.00;;;;;;;27.98;66.58;99187.42;270111;1267;25347;-88
2023/08/18 13:47:56;;;;;;;9.20;4.90;;;;;;;27.92;67.15;99182.27;270342;1267;22214;-88
2023/08/18 13:53:58;;;;;;;7.40;5.50;;;;;;;27.85;67.76;99174.71;273673;1267;23185;-89
2023/08/18 14:00:00;;;;;;;7.40;6.00;;;;;;;27.77;67.91;99181.38;271313;1267;22555;-90
2023/08/18 14:06:02;;;;;;;8.10;5.80;;;;;;;27.74;68.06;99189.52;270166;1266;22548;-89
2023/08/18 14:12:05;;;;;;;7.60;6.00;;;;;;;27.65;68.40;99198.97;270067;1267;22541;-87
2023/08/18 14:18:07;;;;;;;11.10;5.20;;;;;;;27.50;68.92;99208.73;271971;1268;22436;-88
2023/08/18 14:24:09;;;;;;;6.70;5.40;;;;;;;27.31;69.84;99220.06;273463;1269;22301;-90
2023/08/18 14:30:11;;;;;;;8.90;5.40;;;;;;;27.14;70.49;99219.42;273293;1266;22313;-89
2023/08/18 14:36:14;;;;;;;6.00;5.40;;;;;;;26.92;71.19;99220.90;272412;1268;161483;-89
2023/08/18 14:42:17;;;;;;;8.90;5.30;;;;;;;26.67;72.13;99211.45;273254;1269;22336;-90
2023/08/18 14:48:18;;;;;;;6.70;5.10;;;;;;;26.36;73.38;99207.92;272846;1269;22188;-89
2023/08/18 14:54:20;;;;;;;7.40;5.20;;;;;;;26.07;74.28;99205.36;273549;1268;22301;-89
2023/08/18 15:00:22;;;;;;;9.30;5.10;;;;;;;25.78;74.91;99195.28;273454;1269;23541;-89
2023/08/18 15:06:24;;;;;;;14.00;9.90;;;;;;;25.55;75.70;99186.30;273497;1269;22146;-89
2023/08/18 15:12:27;;;;;;;12.90;9.40;;;;;;;25.41;76.75;99177.77;273326;1269;22803;-89
2023/08/18 15:18:28;;;;;;;7.70;5.40;;;;;;;25.31;77.12;99168.52;273323;1268;22558;-89
2023/08/18 15:24:31;;;;;;;9.10;5.70;;;;;;;25.15;76.98;99163.75;273334;1269;22174;-89
2023/08/18 15:30:33;;;;;;;8.40;5.90;;;;;;;24.93;78.89;99164.42;273342;1267;23135;-86
2023/08/18 15:36:35;;;;;;;8.40;6.10;;;;;;;24.58;80.55;99175.61;273370;1267;22320;-87
2023/08/18 15:42:37;;;;;;;7.00;5.20;;;;;;;24.27;81.66;99183.29;273336;1267;22373;-88
2023/08/18 15:48:38;;;;;;;6.30;5.20;;;;;;;24.11;82.96;99193.72;273307;1267;22426;-86
2023/08/18 15:54:40;;;;;;;6.50;5.40;;;;;;;23.93;83.24;99213.27;273403;1269;22391;-87
2023/08/18 16:00:43;;;;;;;6.50;5.30;;;;;;;23.78;84.56;99220.32;273495;1268;24258;-87
2023/08/18 16:06:45;;;;;;;6.00;5.20;;;;;;;23.56;85.06;99225.47;273276;1268;22294;-86
2023/08/18 16:12:47;;;;;;;8.20;5.80;;;;;;;23.40;86.21;99219.29;272685;1267;22567;-85
2023/08/18 16:18:49;;;;;;;6.20;5.30;;;;;;;23.33;87.41;99217.24;272933;1268;22629;-86
2023/08/18 16:24:50;;;;;;;7.00;6.20;;;;;;;23.28;88.14;99214.80;273341;1267;22353;-86
2023/08/18 16:30:52;;;;;;;6.90;5.80;;;;;;;23.10;89.00;99213.34;273225;1268;22163;-85
2023/08/18 16:36:55;;;;;;;7.00;5.50;;;;;;;22.85;91.01;99223.33;273368;1269;22469;-86
2023/08/18 16:42:57;;;;;;;6.90;6.20;;;;;;;22.79;92.54;99229.47;273265;1269;22174;-85
2023/08/18 16:48:59;;;;;;;9.30;6.80;;;;;;;22.76;93.71;99223.17;271803;1263;25460;-86
2023/08/18 16:55:01;;;;;;;13.50;8.30;;;;;;;22.66;94.32;99223.98;271102;1267;22555;-87
2023/08/18 17:01:03;;;;;;;10.00;7.60;;;;;;;22.53;94.55;99221.06;270366;1269;22533;-85
2023/08/18 17:07:05;;;;;;;8.80;7.00;;;;;;;22.41;95.28;99219.38;272177;1269;22385;-87
2023/08/18 17:13:09;;;;;;;9.80;7.50;;;;;;;22.35;95.97;99219.04;272647;1266;22536;-86
2023/08/18 17:19:11;;;;;;;13.40;8.20;;;;;;;22.23;96.27;99220.30;273083;1267;22333;-86
2023/08/18 17:25:13;;;;;;;9.60;7.80;;;;;;;22.12;97.30;99215.73;272432;1267;23207;-86
2023/08/18 17:31:16;;;;;;;11.20;7.60;;;;;;;22.05;98.13;99221.44;273057;1267;22187;-86
2023/08/18 17:37:18;;;;;;;12.00;7.90;;;;;;;21.92;98.93;99226.85;264993;1267;10002010;-87
2023/08/18 17:43:21;;;;;;;9.80;7.30;;;;;;;21.81;99.80;99234.05;272885;1267;23784;-87
2023/08/18 17:49:23;;;;;;;9.30;7.30;;;;;;;21.75;99.98;99238.35;273220;1267;22413;-87
2023/08/18 17:55:24;;;;;;;8.90;7.60;;;;;;;21.61;99.69;99249.98;273441;1267;22312;-87
2023/08/18 18:01:26;;;;;;;12.00;8.60;;;;;;;21.52;100.00;99255.56;273466;1267;23069;-87
2023/08/18 18:07:28;;;;;;;10.50;8.00;;;;;;;21.48;100.00;99247.66;273424;1267;22309;-87
2023/08/18 18:13:30;;;;;;;11.90;8.60;;;;;;;21.36;100.00;99242.44;273532;1269;22336;-87
2023/08/18 18:19:32;;;;;;;9.30;7.80;;;;;;;21.26;100.00;99242.70;273432;1267;22376;-87
2023/08/18 18:25:34;;;;;;;11.60;8.40;;;;;;;21.16;100.00;99239.33;272384;1269;23286;-87
2023/08/18 18:31:36;;;;;;;10.90;9.20;;;;;;;21.09;100.00;99236.80;272775;1267;24137;-87
2023/08/18 18:37:38;;;;;;;13.10;9.00;;;;;;;21.05;100.00;99228.20;273660;1269;22347;-87
2023/08/18 18:43:39;;;;;;;12.70;9.80;;;;;;;21.05;100.00;99231.30;273418;1267;23159;-86
2023/08/18 18:49:42;;;;;;;13.40;9.80;;;;;;;20.93;100.00;99239.16;273513;1269;22434;-87
2023/08/18 18:55:44;;;;;;;14.60;10.60;;;;;;;20.75;100.00;99252.91;273354;1267;22320;-87
2023/08/18 19:01:46;;;;;;;13.10;10.30;;;;;;;20.60;100.00;99250.75;273553;1269;22194;-87
2023/08/18 19:07:48;;;;;;;11.90;9.40;;;;;;;20.54;100.00;99252.17;273567;1267;22299;-87
2023/08/18 19:13:49;;;;;;;10.30;9.30;;;;;;;20.42;100.00;99260.88;272442;1266;23685;-87
2023/08/18 19:19:57;;;;;;;12.80;9.50;;;;;;;20.32;100.00;99277.27;272962;1267;22630;-88
2023/08/18 19:25:59;;;;;;;14.60;9.60;;;;;;;20.25;100.00;99285.90;273634;1269;22178;-87
2023/08/18 19:32:03;;;;;;;11.60;9.20;;;;;;;20.20;100.00;99285.23;273535;1269;23155;-87
2023/08/18 19:38:05;;;;;;;13.30;9.00;;;;;;;20.16;100.00;99287.23;273552;1268;22318;-87
2023/08/18 19:44:07;;;;;;;11.20;8.90;;;;;;;20.18;100.00;99291.58;273556;1266;22305;-86
2023/08/18 19:50:09;;;;;;;17.20;10.40;;;;;;;20.17;100.00;99292.77;273501;1267;22273;-87
2023/08/18 19:56:12;;;;;;;14.60;9.40;;;;;;;20.14;100.00;99295.69;273601;1269;22184;-87
2023/08/18 20:02:13;;;;;;;14.00;10.30;;;;;;;20.13;100.00;99301.24;273530;1267;23392;-87
2023/08/18 20:08:15;;;;;;;16.00;10.30;;;;;;;20.11;100.00;99305.48;273369;1267;22432;-86
2023/08/18 20:14:17;;;;;;;11.20;9.40;;;;;;;20.04;100.00;99308.52;273487;1268;22323;-86
2023/08/18 20:20:18;;;;;;;16.40;8.90;;;;;;;20.00;100.00;99303.29;273553;1269;23653;-87
2023/08/18 20:26:20;;;;;;;11.40;9.20;;;;;;;19.92;100.00;99309.72;273581;1269;22189;-87
2023/08/18 20:32:22;;;;;;;11.00;9.40;;;;;;;19.84;100.00;99303.63;273524;1267;22337;-86
2023/08/18 20:38:24;;;;;;;16.90;10.20;;;;;;;19.73;100.00;99298.55;270638;1269;22225;-86
2023/08/18 20:44:26;;;;;;;13.90;11.30;;;;;;;19.66;100.00;99291.47;273485;1267;23205;-86
2023/08/18 20:50:27;;;;;;;16.10;13.10;;;;;;;19.57;100.00;99285.46;271718;1269;23102;-86
2023/08/18 20:56:29;;;;;;;19.10;13.50;;;;;;;19.47;100.00;99277.75;272630;1259;22483;-87
2023/08/18 21:02:31;;;;;;;16.40;13.30;;;;;;;19.39;100.00;99269.81;270151;1269;22566;-86
2023/08/18 21:08:37;;;;;;;15.70;11.90;;;;;;;19.40;100.00;99264.25;271037;1269;24193;-86
2023/08/18 21:14:41;;;;;;;15.50;12.70;;;;;;;19.36;100.00;99263.05;271768;1269;22606;-88
2023/08/18 21:20:45;;;;;;;14.90;12.40;;;;;;;19.24;100.00;99256.92;270820;1267;22527;-87
2023/08/18 21:26:47;;;;;;;17.20;10.60;;;;;;;19.15;100.00;99258.52;270315;1267;24219;-87
2023/08/18 21:32:49;;;;;;;13.80;10.70;;;;;;;19.09;100.00;99263.08;272894;1269;22265;-86
2023/08/18 21:38:51;;;;;;;12.90;10.80;;;;;;;19.05;100.00;99269.02;273283;1267;23437;-86
2023/08/18 21:44:53;;;;;;;13.00;10.80;;;;;;;19.09;100.00;99280.61;271260;1268;22495;-86
2023/08/18 21:50:57;;;;;;;13.80;11.00;;;;;;;19.10;100.00;99286.14;273704;1267;22374;-86
2023/08/18 21:56:58;;;;;;;16.80;11.70;;;;;;;19.11;100.00;99286.91;273839;1267;22232;-86
2023/08/18 22:03:04;;;;;;;16.30;12.20;;;;;;;19.14;100.00;99289.46;273809;1267;22193;-86
2023/08/18 22:09:10;;;;;;;14.80;11.30;;;;;;;19.10;100.00;99288.77;273848;1269;22208;-85
2023/08/18 22:15:12;;;;;;;14.20;10.90;;;;;;;18.92;100.00;99281.30;272481;1267;22999;-86
2023/08/18 22:21:14;;;;;;;15.10;10.70;;;;;;;18.82;100.00;99277.44;272083;1267;22372;-86
2023/08/18 22:27:19;;;;;;;18.60;11.80;;;;;;;18.66;100.00;99269.88;270332;1267;22568;-87
2023/08/18 22:33:38;;;;;;;17.60;10.20;;;;;;;18.61;100.00;99266.23;272947;1267;24158;-86
2023/08/18 22:39:40;;;;;;;18.70;11.20;;;;;;;18.54;100.00;99262.23;273706;1260;22327;-86
2023/08/18 22:45:48;;;;;;;20.20;12.50;;;;;;;18.48;100.00;99254.89;271451;1267;22436;-86
2023/08/18 22:51:50;;;;;;;14.40;12.90;;;;;;;18.44;100.00;99254.33;270680;1267;25256;-86
2023/08/18 22:57:52;;;;;;;14.00;10.90;;;;;;;18.46;100.00;99247.34;270715;1267;22534;-84
2023/08/18 23:03:56;;;;;;;13.20;10.30;;;;;;;18.45;100.00;99251.61;272014;1267;22461;-85
2023/08/18 23:09:57;;;;;;;12.80;11.00;;;;;;;18.46;100.00;99254.84;271559;1267;22316;-85
2023/08/18 23:16:42;;;;;;;17.10;10.70;;;;;;;18.48;100.00;99259.33;272577;1267;22268;-84
2023/08/18 23:23:25;;;;;;;13.30;11.40;;;;;;;18.46;100.00;99265.39;273577;1267;23237;-85
2023/08/18 23:29:26;;;;;;;15.50;10.40;;;;;;;18.45;100.00;99260.48;271677;1267;24247;-86
2023/08/18 23:35:35;;;;;;;14.50;9.70;;;;;;;18.57;100.00;99250.06;270647;1267;22558;-85
2023/08/18 23:41:37;;;;;;;15.80;11.40;;;;;;;18.62;100.00;99238.02;273679;1267;22439;-86
2023/08/18 23:48:00;;;;;;;14.30;10.60;;;;;;;18.60;100.00;99233.21;273808;1256;23432;-85
2023/08/18 23:54:42;;;;;;;15.90;11.10;;;;;;;18.57;100.00;99239.45;273869;1269;23236;-85
